Time;durP1;ratioP1;P1;durP2;ratioP2;P2;SDS_P1;SDS_P2;PMS_P1;PMS_P2;Temp;Humidity;BMP_temperature;BMP_pressure;BME280_temperature;BME280_humidity;BME280_pressure;Samples;Min_cycle;Max_cycle;Signal;HPM_P1;HPM_P2
2023/05/31 00:37:37;;;;;;;;;;;;;;;;;;;;;
2023/05/31 00:41:30;;;;;;;;;;;;;;;;;;;;;
2023/05/31 03:47:30;;;;;;;1.73;1.05;;;;;;;-145.06;100.00;60892.56;5944939;23;20449;-91
2023/05/31 03:51:31;;;;;;;;;;;;;;;;;;;;;
2023/05/31 03:59:00;;;;;;;;;;;;;;;;;;;;;
2023/05/31 04:06:41;;;;;;;;;;;;;;;;;;;;;
2023/05/31 04:10:16;;;;;;;1.48;0.98;;;;;;;-145.06;100.00;60892.56;5812954;23;20004;-91
2023/05/31 04:13:58;;;;;;;1.45;1.13;;;;;;;-145.06;100.00;60892.56;5857195;23;20001;-91
2023/05/31 04:17:22;;;;;;;1.48;1.20;;;;;;;-145.06;100.00;60892.56;5923349;23;20006;-92
2023/05/31 04:23:46;;;;;;;1.20;1.10;;;;;;;11.97;100.00;60892.56;5957155;23;20013;-90
2023/05/31 04:27:25;;;;;;;1.98;1.30;;;;;;;-145.06;100.00;60892.56;5927367;23;20009;-90
2023/05/31 04:32:59;;;;;;;2.08;1.35;;;;;;;-145.06;100.00;60892.56;5945203;23;20045;-91
2023/05/31 04:35:38;;;;;;;2.08;1.50;;;;;;;-145.06;100.00;60892.56;5924334;23;20006;-91
2023/05/31 04:38:26;;;;;;;1.75;1.30;;;;;;;-145.06;100.00;60892.56;5923955;23;20084;-91
2023/05/31 04:42:03;;;;;;;;;;;;;;;;;;;;;
2023/05/31 04:45:53;;;;;;;1.90;1.33;;;;;;;-145.06;100.00;60892.56;5926955;23;20076;-91
2023/05/31 04:52:30;;;;;;;1.80;1.30;;;;;;;-145.06;100.00;60892.56;5915835;23;20010;-92
2023/05/31 04:55:42;;;;;;;;;;;;;;;;;;;;;
2023/05/31 05:01:47;;;;;;;2.17;1.50;;;;;;;-145.06;100.00;60892.56;5840037;23;20053;-92
2023/05/31 05:08:11;;;;;;;2.05;1.13;;;;;;;-145.06;100.00;60892.56;5905374;23;20006;-91
2023/05/31 05:10:50;;;;;;;2.10;1.38;;;;;;;-145.06;100.00;60892.56;5916421;23;20029;-92
2023/05/31 05:13:30;;;;;;;1.90;1.50;;;;;;;-145.06;100.00;60892.56;5896242;23;20010;-92
2023/05/31 05:16:09;;;;;;;2.40;1.65;;;;;;;-145.06;100.00;60892.56;5895405;23;20082;-92
2023/05/31 05:18:48;;;;;;;2.03;1.67;;;;;;;-145.06;100.00;60892.56;5895379;23;20488;-90
2023/05/31 05:21:28;;;;;;;2.60;1.85;;;;;;;-145.06;100.00;60892.56;5895822;23;20002;-92
2023/05/31 05:24:07;;;;;;;2.53;1.65;;;;;;;-145.06;100.00;60892.56;5913389;23;20010;-91
2023/05/31 05:26:47;;;;;;;2.50;1.80;;;;;;;-145.06;100.00;60892.56;5895743;23;20013;-91
2023/05/31 05:29:25;;;;;;;2.90;1.53;;;;;;;-145.06;100.00;60892.56;5893711;23;20085;-92
2023/05/31 05:32:05;;;;;;;2.57;1.73;;;;;;;12.96;100.00;60892.56;5890632;23;20246;-92
2023/05/31 05:36:13;;;;;;;3.22;1.85;;;;;;;-145.06;100.00;60892.56;5892159;23;20010;-91
2023/05/31 05:42:31;;;;;;;;;;;;;;;;;;;;;
2023/05/31 07:13:56;;;;;;;;;;;;;;;;;;;;;
2023/05/31 07:17:36;;;;;;;;;;;;;;;;;;;;;
2023/05/31 11:48:15;;;;;;;0.38;0.20;;;;;;;-145.06;100.00;60892.56;5930934;23;20444;-93
2023/05/31 14:00:55;;;;;;;1.27;0.60;;;;;;;-145.06;100.00;60892.56;5837917;23;20011;-93
2023/05/31 14:03:35;;;;;;;0.85;0.70;;;;;;;-145.06;100.00;60892.56;5810466;23;20011;-91
2023/05/31 14:06:15;;;;;;;0.95;0.60;;;;;;;-145.06;100.00;60892.56;5808683;23;20011;-91
2023/05/31 14:09:04;;;;;;;;;;;;;;;-145.06;100.00;60892.56;5912737;23;20006;-95
2023/05/31 14:11:54;;;;;;;0.40;0.40;;;;;;;-145.06;100.00;60892.56;5919921;23;20154;-93
2023/05/31 14:14:33;;;;;;;1.20;0.70;;;;;;;-145.06;100.00;60892.56;5908548;23;20081;-93
2023/05/31 14:17:12;;;;;;;2.05;0.80;;;;;;;-145.06;100.00;60892.56;5913786;23;20037;-93
2023/05/31 14:19:51;;;;;;;0.55;0.50;;;;;;;-145.06;100.00;60892.56;5911568;23;20025;-94
2023/05/31 14:22:31;;;;;;;1.63;0.50;;;;;;;-145.06;100.00;60892.56;5908672;23;20009;-93
2023/05/31 14:25:13;;;;;;;1.80;0.77;;;;;;;-145.06;100.00;60892.56;5912626;23;20063;-92
2023/05/31 14:27:52;;;;;;;1.13;0.60;;;;;;;-145.06;100.00;60892.56;5911741;23;20037;-90
2023/05/31 14:30:34;;;;;;;0.82;0.50;;;;;;;-145.06;100.00;60892.56;5917900;23;20318;-91
2023/05/31 14:33:13;;;;;;;0.77;0.50;;;;;;;-145.06;100.00;60892.56;5911314;23;20010;-90
2023/05/31 14:35:52;;;;;;;0.88;0.50;;;;;;;-145.06;100.00;60892.56;5909517;23;20014;-90
2023/05/31 14:38:31;;;;;;;0.93;0.60;;;;;;;-145.06;100.00;60892.56;5915038;23;20013;-92
2023/05/31 14:41:10;;;;;;;0.85;0.60;;;;;;;-145.06;100.00;60892.56;5915931;23;20006;-91
2023/05/31 14:43:49;;;;;;;1.95;0.88;;;;;;;-145.06;100.00;60892.56;5930621;23;20382;-91
2023/05/31 14:46:28;;;;;;;2.22;0.60;;;;;;;-145.06;100.00;60892.56;5917219;23;20010;-91
2023/05/31 14:49:08;;;;;;;1.50;0.70;;;;;;;-145.06;100.00;60892.56;5912631;23;20614;-89
2023/05/31 14:51:47;;;;;;;;;;;;;;;-145.06;100.00;60892.56;5915951;23;20014;-91
2023/05/31 14:54:26;;;;;;;1.25;0.50;;;;;;;-145.06;100.00;60892.56;5909325;23;19909;-90
2023/05/31 14:57:06;;;;;;;0.60;0.40;;;;;;;-145.06;100.00;60892.56;5910753;23;20014;-89
2023/05/31 14:59:45;;;;;;;;;;;;;;;-145.06;100.00;60892.56;5911301;23;20006;-92
2023/05/31 15:02:24;;;;;;;0.43;0.30;;;;;;;-145.06;100.00;60892.56;5912380;23;19908;-91
2023/05/31 15:05:26;;;;;;;1.30;0.50;;;;;;;-145.06;100.00;60892.56;5912741;23;20009;-92
2023/05/31 15:08:05;;;;;;;0.57;0.40;;;;;;;-145.06;100.00;60892.56;5912946;23;20006;-90
2023/05/31 15:10:44;;;;;;;1.15;0.50;;;;;;;-145.06;100.00;60892.56;5913834;23;20006;-90
2023/05/31 15:13:34;;;;;;;1.02;0.50;;;;;;;28.87;100.00;60892.56;5912526;23;20009;-93
2023/05/31 15:16:16;;;;;;;0.47;0.38;;;;;;;-145.06;100.00;60892.56;5912432;23;20010;-91
2023/05/31 15:18:56;;;;;;;1.05;0.52;;;;;;;-145.06;100.00;60892.56;5912804;23;20058;-90
2023/05/31 15:21:35;;;;;;;1.13;0.60;;;;;;;-145.06;100.00;60892.56;5912487;23;20375;-92
2023/05/31 15:24:43;;;;;;;0.70;0.40;;;;;;;-145.06;100.00;60892.56;5915677;23;20009;-92
2023/05/31 15:27:22;;;;;;;2.22;0.57;;;;;;;-145.06;100.00;60892.56;5912818;23;20084;-90
2023/05/31 15:30:01;;;;;;;0.82;0.45;;;;;;;-145.06;100.00;60892.56;5908144;23;20014;-89
2023/05/31 15:32:40;;;;;;;0.70;0.38;;;;;;;-145.06;100.00;60892.56;5912646;23;20010;-91
2023/05/31 15:35:25;;;;;;;2.05;0.80;;;;;;;-145.06;100.00;60892.56;5914380;23;20314;-90
2023/05/31 15:41:43;;;;;;;0.47;0.38;;;;;;;-145.06;100.00;60892.56;6000935;23;20056;-93
2023/05/31 15:44:57;;;;;;;;;;;;;;;;;;;;;
2023/05/31 15:48:00;;;;;;;1.33;0.50;;;;;;;-145.06;100.00;60892.56;6014304;23;20012;-91
2023/05/31 15:51:16;;;;;;;0.93;0.52;;;;;;;-145.06;100.00;60892.56;5979225;23;20032;-91
2023/05/31 15:54:35;;;;;;;1.45;0.45;;;;;;;-145.06;100.00;60892.56;5981892;23;20032;-91
2023/05/31 15:57:42;;;;;;;0.70;0.40;;;;;;;27.48;100.00;60892.56;5983318;23;20024;-91
2023/05/31 16:04:09;;;;;;;0.95;0.55;;;;;;;-145.06;100.00;60892.56;6012751;23;20036;-91
2023/05/31 16:10:52;;;;;;;0.50;0.40;;;;;;;-145.06;100.00;60892.56;5836435;23;20439;-89
2023/05/31 16:13:34;;;;;;;0.70;0.40;;;;;;;-145.06;100.00;60892.56;5865269;23;20041;-91
2023/05/31 16:16:15;;;;;;;1.02;0.40;;;;;;;-145.06;100.00;60892.56;5868939;23;20003;-91
2023/05/31 16:19:05;;;;;;;;;;;;;;;;;;;;;
2023/05/31 16:22:00;;;;;;;0.80;0.52;;;;;;;-145.06;100.00;60892.56;6017911;23;20008;-91
2023/05/31 16:24:49;;;;;;;0.40;0.38;;;;;;;-145.06;100.00;60892.56;5985628;23;20005;-93
2023/05/31 16:27:28;;;;;;;1.00;0.60;;;;;;;-145.06;100.00;60892.56;5980669;23;20076;-91
2023/05/31 16:30:50;;;;;;;0.95;0.50;;;;;;;-145.06;100.00;60892.56;5985108;23;20004;-93
2023/05/31 16:33:29;;;;;;;2.05;0.60;;;;;;;-145.06;100.00;60892.56;5983158;23;20004;-90
2023/05/31 16:36:12;;;;;;;1.15;0.80;;;;;;;-145.06;100.00;60892.56;5980938;22;20645;-91
2023/05/31 16:39:03;;;;;;;1.35;0.57;;;;;;;-145.06;100.00;60892.56;5946360;23;20005;-93
2023/05/31 16:41:42;;;;;;;0.63;0.52;;;;;;;-145.06;100.00;60892.56;5936679;23;20017;-91
2023/05/31 16:47:33;;;;;;;1.20;0.60;;;;;;;-145.06;100.00;60892.56;5910925;23;20429;-91
2023/05/31 16:50:13;;;;;;;1.55;0.50;;;;;;;-145.06;100.00;60892.56;5922750;23;20006;-91
2023/05/31 16:52:52;;;;;;;0.73;0.40;;;;;;;-145.06;100.00;60892.56;5921217;23;20422;-90
2023/05/31 16:55:31;;;;;;;0.45;0.35;;;;;;;-145.06;100.00;60892.56;5925601;23;20010;-91
2023/05/31 16:58:10;;;;;;;0.90;0.68;;;;;;;-145.06;100.00;60892.56;5926659;23;20373;-91
2023/05/31 17:00:49;;;;;;;0.93;0.60;;;;;;;-145.06;100.00;60892.56;5921637;23;20009;-91
2023/05/31 17:03:28;;;;;;;1.52;0.52;;;;;;;-145.06;100.00;60892.56;5922233;23;20017;-93
2023/05/31 17:06:07;;;;;;;0.82;0.60;;;;;;;-145.06;100.00;60892.56;5924813;23;20397;-93
2023/05/31 17:08:48;;;;;;;0.57;0.35;;;;;;;-145.06;100.00;60892.56;5926450;23;20009;-93
2023/05/31 17:11:28;;;;;;;0.77;0.40;;;;;;;-145.06;100.00;60892.56;5926895;23;20018;-92
2023/05/31 17:14:10;;;;;;;;;;;;;;;-145.06;100.00;60892.56;5925990;23;20080;-93
2023/05/31 17:16:52;;;;;;;0.50;0.40;;;;;;;-145.06;100.00;60892.56;5925730;23;19908;-91
2023/05/31 17:19:33;;;;;;;0.70;0.38;;;;;;;28.87;100.00;60892.56;5958295;23;20029;-91
2023/05/31 17:22:15;;;;;;;0.85;0.50;;;;;;;-145.06;100.00;60892.56;5927604;23;20002;-92
2023/05/31 17:24:54;;;;;;;0.73;0.50;;;;;;;-145.06;100.00;60892.56;5927576;23;20037;-93
2023/05/31 17:27:34;;;;;;;0.90;0.55;;;;;;;-145.06;100.00;60892.56;5926589;23;20005;-92
2023/05/31 17:30:13;;;;;;;;;;;;;;;-145.06;100.00;60892.56;5927445;23;20010;-94
2023/05/31 17:32:53;;;;;;;1.80;0.40;;;;;;;-145.06;100.00;60892.56;5927263;23;19934;-92
2023/05/31 17:35:32;;;;;;;1.10;0.50;;;;;;;-145.06;100.00;60892.56;5925052;23;20009;-92
2023/05/31 17:38:12;;;;;;;1.88;0.60;;;;;;;-145.06;100.00;60892.56;5923833;23;20037;-93
2023/05/31 17:40:52;;;;;;;0.45;0.40;;;;;;;-145.06;100.00;60892.56;5923617;23;20077;-92
2023/05/31 17:43:31;;;;;;;1.25;0.57;;;;;;;-145.06;100.00;60892.56;5924023;23;20029;-92
2023/05/31 17:46:09;;;;;;;2.85;0.60;;;;;;;-145.06;100.00;60892.56;5924529;23;20057;-93
2023/05/31 17:48:51;;;;;;;0.93;0.60;;;;;;;-145.06;100.00;60892.56;5923816;23;20009;-92
2023/05/31 17:51:33;;;;;;;1.05;0.80;;;;;;;-145.06;100.00;60892.56;5923099;23;20001;-92
2023/05/31 17:54:13;;;;;;;0.95;0.50;;;;;;;-145.06;100.00;60892.56;5923212;23;20010;-92
2023/05/31 17:56:52;;;;;;;0.60;0.45;;;;;;;-145.06;100.00;60892.56;5923226;23;20009;-91
2023/05/31 17:59:32;;;;;;;1.17;0.60;;;;;;;-145.06;100.00;60892.56;5922737;23;20009;-91
2023/05/31 18:02:12;;;;;;;;;;;;;;;-145.06;100.00;60892.56;5923548;23;20005;-92
2023/05/31 18:04:51;;;;;;;0.93;0.55;;;;;;;-145.06;100.00;60892.56;5923794;23;20271;-91
2023/05/31 18:07:29;;;;;;;1.45;0.50;;;;;;;-145.06;100.00;60892.56;5923558;23;20009;-92
2023/05/31 18:10:09;;;;;;;1.00;0.40;;;;;;;-145.06;100.00;60892.56;5923703;23;20010;-92
2023/05/31 18:12:48;;;;;;;1.27;0.43;;;;;;;-145.06;100.00;60892.56;5923578;23;20010;-91
2023/05/31 18:15:28;;;;;;;0.40;0.40;;;;;;;-145.06;100.00;60892.56;5923428;23;20009;-92
2023/05/31 18:18:07;;;;;;;1.67;0.40;;;;;;;-145.06;100.00;60892.56;5923189;23;20005;-92
2023/05/31 18:20:49;;;;;;;1.48;0.50;;;;;;;-145.06;100.00;60892.56;5923479;23;20275;-91
2023/05/31 18:27:35;;;;;;;0.73;0.60;;;;;;;-145.06;100.00;60892.56;5952359;23;20017;-93
2023/05/31 18:30:14;;;;;;;0.93;0.70;;;;;;;-145.06;100.00;60892.56;5899336;23;20013;-90
2023/05/31 18:33:09;;;;;;;1.35;0.50;;;;;;;-145.06;100.00;60892.56;5919900;23;20005;-92
2023/05/31 18:36:09;;;;;;;0.82;0.57;;;;;;;-145.06;100.00;60892.56;5926557;23;20009;-95
2023/05/31 18:43:49;;;;;;;2.00;0.68;;;;;;;-145.06;100.00;60892.56;5946059;23;20025;-92
2023/05/31 18:50:07;;;;;;;0.93;0.70;;;;;;;-145.06;100.00;60892.56;5857560;23;20010;-95
2023/05/31 18:52:51;;;;;;;0.70;0.40;;;;;;;-145.06;100.00;60892.56;5904107;23;20032;-91
2023/05/31 18:55:31;;;;;;;1.27;0.60;;;;;;;-145.06;100.00;60892.56;5915805;23;20389;-92
2023/05/31 18:58:10;;;;;;;;;;;;;;;-145.06;100.00;60892.56;5915805;23;20006;-92
2023/05/31 19:00:52;;;;;;;0.60;0.60;;;;;;;-145.06;100.00;60892.56;5915604;23;19930;-91
2023/05/31 19:03:53;;;;;;;1.40;0.50;;;;;;;-145.06;100.00;60892.56;5925389;23;20010;-92
2023/05/31 19:06:40;;;;;;;1.00;0.60;;;;;;;-145.06;100.00;60892.56;5894889;23;20014;-94
2023/05/31 19:19:23;;;;;;;1.23;0.60;;;;;;;-145.06;100.00;60892.56;5946859;23;20109;-93
2023/05/31 19:22:08;;;;;;;1.35;0.73;;;;;;;-145.06;100.00;60892.56;5922914;23;20010;-95
2023/05/31 19:24:55;;;;;;;0.75;0.43;;;;;;;-145.06;100.00;60892.56;5924698;23;20017;-93
2023/05/31 19:31:18;;;;;;;0.90;0.60;;;;;;;-145.06;100.00;60892.56;5922324;23;20002;-91
2023/05/31 19:38:28;;;;;;;;;;;;;;;;;;;;;
2023/05/31 19:42:51;;;;;;;;;;;;;;;;;;;;;
2023/05/31 19:50:09;;;;;;;1.23;0.50;;;;;;;-145.06;100.00;60892.56;5837312;23;20006;-95
2023/05/31 19:53:14;;;;;;;1.25;0.40;;;;;;;-145.06;100.00;60892.56;5911108;23;20006;-95
2023/05/31 19:57:07;;;;;;;;;;;;;;;;;;;;;
2023/05/31 20:00:29;;;;;;;;;;;;;;;;;;;;;
2023/05/31 20:07:27;;;;;;;;;;;;;;;;;;;;;
2023/05/31 20:10:12;;;;;;;1.00;0.50;;;;;;;-145.06;100.00;60892.56;5927030;23;20134;-92
2023/05/31 20:13:02;;;;;;;0.98;0.50;;;;;;;-145.06;100.00;60892.56;5896172;23;20389;-93
2023/05/31 20:16:02;;;;;;;;;;;;;;;;;;;;;
2023/05/31 20:18:56;;;;;;;0.50;0.40;;;;;;;-145.06;100.00;60892.56;5927390;23;20066;-93
2023/05/31 20:21:55;;;;;;;;;;;;;;;;;;;;;
2023/05/31 20:24:40;;;;;;;1.30;0.68;;;;;;;-145.06;100.00;60892.56;5928059;23;20029;-94
2023/05/31 20:27:30;;;;;;;0.60;0.40;;;;;;;-145.06;100.00;60892.56;5897186;23;20010;-92
2023/05/31 21:25:28;;;;;;;1.45;0.50;;;;;;;-145.06;100.00;60892.56;5946026;23;20021;-90
2023/05/31 21:28:20;;;;;;;1.40;0.65;;;;;;;-145.06;100.00;60892.56;5923807;23;20010;-93
2023/05/31 21:31:05;;;;;;;0.63;0.40;;;;;;;-145.06;100.00;60892.56;5895181;23;20006;-94
2023/05/31 21:33:47;;;;;;;0.95;0.43;;;;;;;-145.06;100.00;60892.56;5895794;23;20010;-94
2023/05/31 21:58:55;;;;;;;1.40;0.47;;;;;;;-145.06;100.00;60892.56;5871911;23;20028;-94
2023/05/31 22:02:40;;;;;;;;;;;;;;;;;;;;;
2023/05/31 22:09:31;;;;;;;1.15;0.40;;;;;;;-145.06;100.00;60892.56;5926985;23;20014;-94
2023/05/31 22:20:17;;;;;;;;;;;;;;;;;;;;;
2023/05/31 22:26:51;;;;;;;0.90;0.50;;;;;;;19.70;100.00;60892.56;5868557;23;20007;-94
2023/05/31 22:30:30;;;;;;;;;;;;;;;;;;;;;
2023/05/31 22:37:44;;;;;;;;;;;;;;;;;;;;;
2023/05/31 22:41:04;;;;;;;1.23;0.70;;;;;;;-145.06;100.00;60892.56;5927216;23;20001;-94
2023/05/31 22:47:44;;;;;;;0.47;0.40;;;;;;;-145.06;100.00;60892.56;5912022;23;19905;-94
2023/05/31 22:51:01;;;;;;;;;;;;;;;;;;;;;
2023/05/31 22:53:41;;;;;;;1.05;0.50;;;;;;;-145.06;100.00;60892.56;5927259;23;20009;-94
2023/05/31 22:56:20;;;;;;;1.13;0.70;;;;;;;-145.06;100.00;60892.56;5895127;23;20326;-94
2023/05/31 22:59:20;;;;;;;0.60;0.50;;;;;;;-145.06;100.00;60892.56;5894512;23;20010;-93
2023/05/31 23:02:10;;;;;;;1.00;0.50;;;;;;;18.45;100.00;60892.56;5894014;23;20002;-93
2023/05/31 23:05:06;;;;;;;0.50;0.45;;;;;;;-145.06;100.00;60892.56;5895549;23;20006;-94
2023/05/31 23:08:10;;;;;;;0.80;0.70;;;;;;;-145.06;100.00;60892.56;5895293;23;20005;-94
2023/05/31 23:11:02;;;;;;;0.75;0.50;;;;;;;-145.06;100.00;60892.56;5895155;23;20006;-94
2023/05/31 23:13:45;;;;;;;0.50;0.43;;;;;;;-145.06;100.00;60892.56;5897201;23;20006;-95
2023/05/31 23:16:28;;;;;;;0.93;0.60;;;;;;;-145.06;100.00;60892.56;5896719;23;20010;-93
2023/05/31 23:19:11;;;;;;;0.80;0.60;;;;;;;-145.06;100.00;60892.56;5897083;23;20002;-93
2023/05/31 23:21:52;;;;;;;0.90;0.50;;;;;;;-145.06;100.00;60892.56;5896084;23;20001;-93
2023/05/31 23:24:41;;;;;;;0.93;0.50;;;;;;;-145.06;100.00;60892.56;5896978;23;20010;-94
2023/05/31 23:27:33;;;;;;;0.80;0.60;;;;;;;-145.06;100.00;60892.56;5918215;23;20006;-94
2023/05/31 23:30:26;;;;;;;0.90;0.70;;;;;;;-145.06;100.00;60892.56;5896628;23;20006;-94
2023/05/31 23:33:18;;;;;;;2.72;1.08;;;;;;;-145.06;100.00;60892.56;5896279;23;20034;-94
2023/05/31 23:35:59;;;;;;;0.70;0.50;;;;;;;-145.06;100.00;60892.56;5896939;23;20092;-93
2023/05/31 23:41:41;;;;;;;0.80;0.43;;;;;;;-145.06;100.00;60892.56;5926968;23;20002;-92
2023/05/31 23:44:23;;;;;;;1.27;0.60;;;;;;;-145.06;100.00;60892.56;5895705;23;20006;-93
2023/05/31 23:47:02;;;;;;;0.70;0.50;;;;;;;-145.06;100.00;60892.56;5897016;23;20005;-93
2023/05/31 23:49:42;;;;;;;1.50;0.63;;;;;;;-145.06;100.00;60892.56;5895505;23;20006;-93
2023/05/31 23:52:23;;;;;;;;;;;;;;;-145.06;100.00;60892.56;5896827;23;20005;-93
2023/05/31 23:55:06;;;;;;;1.00;0.55;;;;;;;17.16;100.00;60892.56;5897287;23;19933;-95
2023/05/31 23:57:45;;;;;;;1.00;0.60;;;;;;;-145.06;100.00;60892.56;5896981;23;20061;-95
